LOT7PV EPWA-LZKZ
Flight info
| Callsign | LOT7PV |
|---|---|
| Flight time | N/A |
| Altitude | 31000 |
| Route | EVINA M985 KOTEK N133 LENOV/N0334F230 DCT RAZEC |
| Aircraft | E75L/M-SDE3GILORVW/S |
Departure
| Time | N/A |
|---|---|
| Airport | Warsaw Chopin Airport (EPWA) |
Arrival
| Time | 2026-04-26 13:33 |
|---|---|
| Airport | Košice International Airport (LZKZ) |
| Time | Latitude | Longitude | Altitude | Speed | Heading |
|---|---|---|---|---|---|
| 2026-04-26 13:21 | 49.16998 | 21.07128 | 16125 ft | 422 kts | 170° |
| 2026-04-26 13:21 | 49.15091 | 21.07825 | 15815 ft | 420 kts | 170° |
| 2026-04-26 13:21 | 49.11341 | 21.09194 | 15224 ft | 415 kts | 170° |
| 2026-04-26 13:21 | 49.08558 | 21.10212 | 14795 ft | 413 kts | 170° |
| 2026-04-26 13:22 | 49.05750 | 21.11238 | 14338 ft | 410 kts | 169° |
| 2026-04-26 13:22 | 49.03018 | 21.12235 | 13893 ft | 408 kts | 169° |
| 2026-04-26 13:22 | 49.00269 | 21.13237 | 13463 ft | 404 kts | 169° |
| 2026-04-26 13:22 | 48.97548 | 21.14142 | 13010 ft | 394 kts | 178° |
| 2026-04-26 13:23 | 48.94871 | 21.14321 | 12694 ft | 384 kts | 183° |
| 2026-04-26 13:23 | 48.92195 | 21.14410 | 12262 ft | 378 kts | 183° |
| 2026-04-26 13:23 | 48.89605 | 21.14490 | 11848 ft | 371 kts | 183° |
| 2026-04-26 13:23 | 48.87038 | 21.14570 | 11353 ft | 365 kts | 183° |
| 2026-04-26 13:24 | 48.84541 | 21.14643 | 10908 ft | 354 kts | 184° |
| 2026-04-26 13:24 | 48.82198 | 21.14143 | 10549 ft | 334 kts | 198° |
| 2026-04-26 13:24 | 48.79972 | 21.13379 | 10190 ft | 323 kts | 198° |
| 2026-04-26 13:24 | 48.77815 | 21.12633 | 9852 ft | 314 kts | 198° |
| 2026-04-26 13:25 | 48.75719 | 21.11905 | 9490 ft | 305 kts | 198° |
| 2026-04-26 13:25 | 48.73650 | 21.11185 | 9164 ft | 301 kts | 198° |
| 2026-04-26 13:25 | 48.71643 | 21.10488 | 8883 ft | 299 kts | 198° |
| 2026-04-26 13:25 | 48.69579 | 21.09771 | 8560 ft | 301 kts | 198° |
| 2026-04-26 13:26 | 48.67571 | 21.09075 | 8244 ft | 299 kts | 198° |
| 2026-04-26 13:26 | 48.65539 | 21.08372 | 7944 ft | 295 kts | 198° |
| 2026-04-26 13:26 | 48.63544 | 21.07681 | 7623 ft | 296 kts | 198° |
| 2026-04-26 13:26 | 48.61535 | 21.06986 | 7303 ft | 294 kts | 197° |
| 2026-04-26 13:27 | 48.59564 | 21.06305 | 6994 ft | 292 kts | 197° |
| 2026-04-26 13:27 | 48.57584 | 21.05622 | 6659 ft | 289 kts | 197° |
| 2026-04-26 13:27 | 48.55648 | 21.04953 | 6340 ft | 286 kts | 197° |
| 2026-04-26 13:27 | 48.53690 | 21.04290 | 6019 ft | 285 kts | 192° |
| 2026-04-26 13:28 | 48.51735 | 21.04564 | 5727 ft | 291 kts | 157° |
| 2026-04-26 13:28 | 48.50139 | 21.06365 | 5342 ft | 292 kts | 124° |
| 2026-04-26 13:28 | 48.49384 | 21.09108 | 4970 ft | 279 kts | 98° |
| 2026-04-26 13:28 | 48.48980 | 21.11948 | 4624 ft | 277 kts | 98° |
| 2026-04-26 13:29 | 48.48824 | 21.14777 | 4310 ft | 266 kts | 71° |
| 2026-04-26 13:29 | 48.49283 | 21.16428 | 4175 ft | 251 kts | 48° |
| 2026-04-26 13:29 | 48.51014 | 21.18264 | 3564 ft | 217 kts | 17° |
| 2026-04-26 13:29 | 48.52376 | 21.18962 | 3228 ft | 198 kts | 14° |
| 2026-04-26 13:30 | 48.53652 | 21.19527 | 2958 ft | 182 kts | 12° |
| 2026-04-26 13:30 | 48.54816 | 21.19999 | 2799 ft | 166 kts | 12° |
| 2026-04-26 13:30 | 48.55898 | 21.20417 | 2609 ft | 159 kts | 10° |
| 2026-04-26 13:30 | 48.56953 | 21.20823 | 2472 ft | 149 kts | 11° |
| 2026-04-26 13:31 | 48.57921 | 21.21188 | 2454 ft | 134 kts | 11° |
| 2026-04-26 13:31 | 48.58799 | 21.21502 | 2234 ft | 126 kts | 8° |
| 2026-04-26 13:31 | 48.59629 | 21.21792 | 2003 ft | 118 kts | 12° |
| 2026-04-26 13:31 | 48.60430 | 21.22082 | 1768 ft | 121 kts | 11° |
| 2026-04-26 13:32 | 48.61249 | 21.22391 | 1502 ft | 122 kts | 9° |
| 2026-04-26 13:32 | 48.62066 | 21.22681 | 1355 ft | 120 kts | 9° |
| 2026-04-26 13:32 | 48.62895 | 21.22960 | 1188 ft | 121 kts | 13° |
| 2026-04-26 13:32 | 48.63717 | 21.23240 | 1004 ft | 124 kts | 8° |
| 2026-04-26 13:33 | 48.64567 | 21.23516 | 830 ft | 123 kts | 8° |
| 2026-04-26 13:33 | 48.65375 | 21.23791 | 736 ft | 110 kts | 13° |
| 2026-04-26 13:33 | 48.65933 | 21.23989 | 742 ft | 57 kts | 11° |
| 2026-04-26 13:33 | 48.66227 | 21.24089 | 743 ft | 39 kts | 13° |
| 2026-04-26 13:34 | 48.66488 | 21.24182 | 745 ft | 37 kts | 13° |
| 2026-04-26 13:34 | 48.66723 | 21.24257 | 746 ft | 23 kts | 360° |
| 2026-04-26 13:34 | 48.66833 | 21.24286 | 746 ft | 16 kts | 19° |
| 2026-04-26 13:34 | 48.66919 | 21.24326 | 746 ft | 22 kts | 15° |
| 2026-04-26 13:35 | 48.67165 | 21.24418 | 748 ft | 22 kts | 1° |
| 2026-04-26 13:35 | 48.67247 | 21.24278 | 750 ft | 19 kts | 284° |
| 2026-04-26 13:35 | 48.67279 | 21.24078 | 751 ft | 19 kts | 279° |
| 2026-04-26 13:35 | 48.67298 | 21.23913 | 753 ft | 7 kts | 255° |
| 2026-04-26 13:36 | 48.67262 | 21.23871 | 754 ft | 6 kts | 195° |
| 2026-04-26 13:36 | 48.67213 | 21.23854 | 754 ft | 7 kts | 205° |
| 2026-04-26 13:36 | 48.67185 | 21.23807 | 755 ft | 6 kts | 199° |
| 2026-04-26 13:36 | 48.67178 | 21.23789 | 755 ft | 2 kts | 290° |
| 2026-04-26 13:37 | 48.67181 | 21.23786 | 754 ft | 0 kts | 329° |